Time;durP1;ratioP1;P1;durP2;ratioP2;P2;SDS_P1;SDS_P2;PMS_P1;PMS_P2;Temp;Humidity;BMP_temperature;BMP_pressure;BME280_temperature;BME280_humidity;BME280_pressure;Samples;Min_cycle;Max_cycle;Signal;HPM_P1;HPM_P2
2022/03/15 00:01:55;;;;;;;23.55;8.40;;;;;;;;;;6200727;23;20118;-82
2022/03/15 00:04:21;;;;;;;24.27;8.63;;;;;;;;;;6245371;23;20016;-83
2022/03/15 00:06:47;;;;;;;22.00;8.85;;;;;;;;;;6240031;23;20030;-83
2022/03/15 00:09:13;;;;;;;27.73;9.05;;;;;;;;;;6213857;23;20453;-87
2022/03/15 00:11:40;;;;;;;27.63;9.70;;;;;;;;;;6236106;23;20309;-84
2022/03/15 00:14:14;;;;;;;31.73;10.35;;;;;;;;;;6239306;23;20012;-85
2022/03/15 00:16:40;;;;;;;;;;;;;;;;;;6185689;23;20016;-83
2022/03/15 00:19:06;;;;;;;30.15;10.10;;;;;;;;;;6207622;23;20381;-84
2022/03/15 00:21:33;;;;;;;28.65;9.38;;;;;;;;;;6208463;23;20066;-86
2022/03/15 00:23:59;;;;;;;35.00;11.77;;;;;;;;;;6182861;23;20016;-85
2022/03/15 00:26:28;;;;;;;22.75;10.20;;;;;;;;;;6235429;23;20062;-83
2022/03/15 00:28:54;;;;;;;21.98;9.80;;;;;;;;;;6206631;23;20341;-83
2022/03/15 00:31:22;;;;;;;34.50;10.27;;;;;;;;;;6236022;23;20106;-85
2022/03/15 00:33:48;;;;;;;29.90;12.27;;;;;;;;;;6157185;23;20051;-83
2022/03/15 00:36:15;;;;;;;33.35;10.77;;;;;;;;;;6158948;23;20322;-83
2022/03/15 00:38:41;;;;;;;37.45;10.63;;;;;;;;;;6235532;23;20016;-83
2022/03/15 00:41:17;;;;;;;26.00;10.85;;;;;;;;;;6233247;23;20024;-84
2022/03/15 00:43:43;;;;;;;29.10;11.10;;;;;;;;;;6233898;23;20059;-89
2022/03/15 00:46:09;;;;;;;38.35;11.88;;;;;;;;;;6206594;23;20022;-85
2022/03/15 00:48:35;;;;;;;34.13;9.77;;;;;;;;;;6234513;23;20030;-85
2022/03/15 00:51:01;;;;;;;29.52;11.27;;;;;;;;;;6231994;23;20012;-90
2022/03/15 00:53:27;;;;;;;19.75;10.77;;;;;;;;;;6235348;23;20016;-83
2022/03/15 00:55:54;;;;;;;25.42;10.38;;;;;;;;;;6232191;23;20059;-88
2022/03/15 00:58:20;;;;;;;28.85;10.88;;;;;;;;;;6209328;23;20027;-82
2022/03/15 01:00:48;;;;;;;27.27;9.88;;;;;;;;;;6207257;23;20031;-83
2022/03/15 01:03:14;;;;;;;29.25;11.27;;;;;;;;;;6234611;23;20020;-82
2022/03/15 01:05:41;;;;;;;24.33;9.95;;;;;;;;;;6212646;23;20016;-85
2022/03/15 01:08:07;;;;;;;26.42;10.25;;;;;;;;;;6206930;23;20016;-83
2022/03/15 01:10:34;;;;;;;24.40;10.95;;;;;;;;;;6234020;23;20016;-83
2022/03/15 01:13:00;;;;;;;26.25;10.35;;;;;;;;;;6234493;23;20016;-83
2022/03/15 01:15:26;;;;;;;24.00;9.70;;;;;;;;;;6235168;23;20810;-84
2022/03/15 01:17:53;;;;;;;28.25;10.15;;;;;;;;;;6233021;23;20085;-83
2022/03/15 01:20:19;;;;;;;24.52;10.30;;;;;;;;;;6234967;23;20024;-89
2022/03/15 01:22:45;;;;;;;32.55;11.73;;;;;;;;;;6232082;23;20016;-85
2022/03/15 01:25:12;;;;;;;30.80;10.82;;;;;;;;;;6209389;23;20417;-82
2022/03/15 01:27:38;;;;;;;19.65;9.88;;;;;;;;;;6235592;23;20020;-86
2022/03/15 01:30:07;;;;;;;30.65;11.25;;;;;;;;;;6240100;23;20020;-90
2022/03/15 01:32:34;;;;;;;27.13;10.73;;;;;;;;;;6240230;23;20088;-87
2022/03/15 01:35:00;;;;;;;19.20;10.40;;;;;;;;;;6213399;23;20020;-89
2022/03/15 01:37:26;;;;;;;29.73;10.85;;;;;;;;;;6239130;23;20024;-83
2022/03/15 01:39:58;;;;;;;26.95;10.73;;;;;;;;;;6235458;23;20016;-87
2022/03/15 01:42:24;;;;;;;32.20;11.88;;;;;;;;;;6236825;23;20020;-85
2022/03/15 01:44:51;;;;;;;28.80;11.48;;;;;;;;;;6240348;23;20035;-83
2022/03/15 01:47:17;;;;;;;43.63;12.73;;;;;;;;;;6238213;23;21359;-83
2022/03/15 01:49:44;;;;;;;28.45;12.05;;;;;;;;;;6234103;23;20020;-86
2022/03/15 01:52:12;;;;;;;33.78;12.43;;;;;;;;;;6234823;23;20062;-88
2022/03/15 01:54:40;;;;;;;28.80;12.77;;;;;;;;;;6235455;23;20091;-89
2022/03/15 01:57:07;;;;;;;35.35;12.95;;;;;;;;;;6235097;23;20442;-84
2022/03/15 01:59:34;;;;;;;33.92;13.30;;;;;;;;;;6235005;23;20059;-88
2022/03/15 02:02:00;;;;;;;37.13;13.60;;;;;;;;;;6232778;23;20016;-86
2022/03/15 02:04:26;;;;;;;34.28;13.88;;;;;;;;;;6208794;23;20090;-91
2022/03/15 02:07:01;;;;;;;33.95;13.15;;;;;;;;;;6231730;23;20056;-83
2022/03/15 02:09:27;;;;;;;30.95;13.20;;;;;;;;;;6234330;23;20023;-92
2022/03/15 02:12:02;;;;;;;38.20;13.95;;;;;;;;;;6237122;23;20034;-94
2022/03/15 02:14:29;;;;;;;31.65;13.35;;;;;;;;;;6245719;22;20020;-86
2022/03/15 02:16:55;;;;;;;32.30;14.15;;;;;;;;;;6243722;23;20020;-87
2022/03/15 02:19:27;;;;;;;27.38;15.07;;;;;;;;;;6236326;23;20032;-85
2022/03/15 02:21:57;;;;;;;39.33;15.38;;;;;;;;;;6236046;23;20027;-86
2022/03/15 02:24:23;;;;;;;34.72;15.00;;;;;;;;;;6209845;23;20051;-85
2022/03/15 02:26:58;;;;;;;28.38;14.25;;;;;;;;;;6237083;23;20016;-87
2022/03/15 02:29:24;;;;;;;37.65;14.18;;;;;;;;;;6234574;23;20020;-84
2022/03/15 02:31:54;;;;;;;30.83;14.77;;;;;;;;;;6236018;23;20051;-85
2022/03/15 02:34:21;;;;;;;35.65;14.77;;;;;;;;;;6233955;23;20047;-87
2022/03/15 02:36:47;;;;;;;31.38;15.30;;;;;;;;;;6235377;23;20028;-86
2022/03/15 02:39:14;;;;;;;35.15;13.57;;;;;;;;;;6234080;23;20388;-91
2022/03/15 02:41:40;;;;;;;37.83;15.02;;;;;;;;;;6234714;23;20534;-82
2022/03/15 02:44:06;;;;;;;40.13;14.90;;;;;;;;;;6234389;23;20063;-85
2022/03/15 02:46:34;;;;;;;41.55;15.50;;;;;;;;;;6235102;23;20457;-87
2022/03/15 02:49:01;;;;;;;31.10;14.45;;;;;;;;;;6235670;23;20085;-90
2022/03/15 02:51:27;;;;;;;35.58;14.80;;;;;;;;;;6205403;23;20514;-84
2022/03/15 02:53:54;;;;;;;39.50;15.82;;;;;;;;;;6234778;23;20024;-85
2022/03/15 02:56:21;;;;;;;36.22;17.33;;;;;;;;;;6233545;23;20093;-85
2022/03/15 02:58:47;;;;;;;37.17;15.43;;;;;;;;;;6183466;23;20448;-83
2022/03/15 03:01:13;;;;;;;38.03;15.48;;;;;;;;;;6207124;23;20016;-84
2022/03/15 03:03:40;;;;;;;38.15;16.33;;;;;;;;;;6233488;23;20020;-90
2022/03/15 03:06:12;;;;;;;31.92;15.80;;;;;;;;;;6206506;23;20051;-92
2022/03/15 03:08:38;;;;;;;33.28;14.80;;;;;;;;;;6235148;23;20024;-84
2022/03/15 03:11:04;;;;;;;33.83;15.25;;;;;;;;;;6157836;23;20460;-84
2022/03/15 03:13:31;;;;;;;34.75;15.55;;;;;;;;;;6232072;23;20017;-84
2022/03/15 03:15:58;;;;;;;40.42;17.05;;;;;;;;;;6234039;23;20024;-89
2022/03/15 03:18:32;;;;;;;38.20;16.10;;;;;;;;;;6232081;23;20122;-83
2022/03/15 03:20:59;;;;;;;35.13;15.13;;;;;;;;;;6236505;23;20111;-88
2022/03/15 03:23:25;;;;;;;25.98;14.70;;;;;;;;;;6234737;23;20020;-91
2022/03/15 03:25:51;;;;;;;38.80;15.95;;;;;;;;;;6159500;23;20050;-84
2022/03/15 03:28:17;;;;;;;37.13;15.30;;;;;;;;;;6235305;23;20472;-85
2022/03/15 03:30:47;;;;;;;38.28;14.88;;;;;;;;;;6235766;23;20035;-86
2022/03/15 03:33:22;;;;;;;29.05;15.18;;;;;;;;;;6236368;23;20016;-92
2022/03/15 03:35:51;;;;;;;36.35;16.17;;;;;;;;;;6206594;23;20055;-84
2022/03/15 03:38:17;;;;;;;32.42;16.85;;;;;;;;;;6157871;23;20058;-85
2022/03/15 03:40:43;;;;;;;39.08;17.30;;;;;;;;;;6207185;23;20063;-82
2022/03/15 03:43:09;;;;;;;29.45;16.00;;;;;;;;;;6209975;23;20012;-85
2022/03/15 03:45:36;;;;;;;39.33;17.75;;;;;;;;;;6234171;23;20076;-83
2022/03/15 03:48:03;;;;;;;32.55;16.90;;;;;;;;;;6208459;23;20024;-82
2022/03/15 03:50:32;;;;;;;40.35;17.23;;;;;;;;;;6235503;23;20056;-85
2022/03/15 03:52:59;;;;;;;35.88;19.13;;;;;;;;;;6234503;23;20520;-82
2022/03/15 03:55:25;;;;;;;35.72;19.13;;;;;;;;;;6234595;23;20087;-83
2022/03/15 03:57:51;;;;;;;45.85;20.70;;;;;;;;;;6208196;23;20016;-82
2022/03/15 04:00:17;;;;;;;36.90;18.58;;;;;;;;;;6235074;23;20020;-92
2022/03/15 04:02:43;;;;;;;41.38;18.98;;;;;;;;;;6235837;23;20055;-87
2022/03/15 04:05:09;;;;;;;40.30;19.45;;;;;;;;;;6236260;23;20020;-89
2022/03/15 04:07:37;;;;;;;34.95;19.88;;;;;;;;;;6238038;23;20019;-90
2022/03/15 04:10:06;;;;;;;43.25;20.05;;;;;;;;;;6208241;23;20552;-92
2022/03/15 04:12:34;;;;;;;37.45;20.10;;;;;;;;;;6209051;23;20028;-90
2022/03/15 04:15:00;;;;;;;50.97;22.33;;;;;;;;;;6207414;23;20024;-90
2022/03/15 04:17:26;;;;;;;41.60;21.13;;;;;;;;;;6209282;23;20302;-91
2022/03/15 04:19:53;;;;;;;45.13;22.63;;;;;;;;;;6207958;23;20075;-88
2022/03/15 04:22:19;;;;;;;45.65;22.27;;;;;;;;;;6234883;23;20024;-90
2022/03/15 04:24:46;;;;;;;40.15;20.73;;;;;;;;;;6238820;23;20019;-92
2022/03/15 04:27:12;;;;;;;42.80;20.67;;;;;;;;;;6218937;23;20027;-90
2022/03/15 04:29:38;;;;;;;40.17;22.05;;;;;;;;;;6243219;23;20017;-90
2022/03/15 04:32:05;;;;;;;42.20;22.83;;;;;;;;;;6248497;23;20027;-89
2022/03/15 04:34:31;;;;;;;45.53;23.98;;;;;;;;;;6209425;23;20115;-88
2022/03/15 04:36:58;;;;;;;55.58;24.63;;;;;;;;;;6234138;23;20035;-92
2022/03/15 04:39:25;;;;;;;51.55;23.45;;;;;;;;;;6235849;23;20016;-93
2022/03/15 04:41:51;;;;;;;43.47;23.77;;;;;;;;;;6207656;23;20058;-93
2022/03/15 04:44:18;;;;;;;45.40;23.85;;;;;;;;;;6235752;23;20453;-90
2022/03/15 04:46:47;;;;;;;43.45;24.30;;;;;;;;;;6233441;23;20055;-83
2022/03/15 04:49:13;;;;;;;45.55;24.10;;;;;;;;;;6235303;23;20024;-84
2022/03/15 04:51:39;;;;;;;44.70;24.05;;;;;;;;;;6234291;23;20016;-90
2022/03/15 04:54:05;;;;;;;48.35;24.60;;;;;;;;;;6236869;23;20024;-90
2022/03/15 04:56:31;;;;;;;47.28;25.00;;;;;;;;;;6208750;23;20115;-89
2022/03/15 04:58:57;;;;;;;46.58;24.77;;;;;;;;;;6235274;23;20460;-91
2022/03/15 05:01:24;;;;;;;42.25;26.15;;;;;;;;;;6235384;23;20050;-90
2022/03/15 05:03:53;;;;;;;51.05;25.85;;;;;;;;;;6232084;23;20062;-93
2022/03/15 05:06:19;;;;;;;53.78;27.63;;;;;;;;;;6233677;23;20024;-83
2022/03/15 05:08:45;;;;;;;51.78;27.92;;;;;;;;;;6234411;23;20024;-86
2022/03/15 05:11:11;;;;;;;51.72;27.08;;;;;;;;;;6233744;23;20567;-86
2022/03/15 05:13:39;;;;;;;46.03;28.95;;;;;;;;;;6232887;23;20016;-82
2022/03/15 05:16:06;;;;;;;42.70;26.70;;;;;;;;;;6207407;23;20026;-82
2022/03/15 05:18:34;;;;;;;52.55;28.80;;;;;;;;;;6232722;23;20099;-85
2022/03/15 05:21:02;;;;;;;48.17;28.15;;;;;;;;;;6233684;23;20056;-85
2022/03/15 05:23:29;;;;;;;54.83;29.00;;;;;;;;;;6234527;23;20604;-89
2022/03/15 05:25:55;;;;;;;50.75;28.77;;;;;;;;;;6234908;23;20488;-91
2022/03/15 05:28:21;;;;;;;57.10;28.52;;;;;;;;;;6237498;23;20022;-91
2022/03/15 05:33:38;;;;;;;60.75;29.35;;;;;;;;;;6269621;22;20111;-90
2022/03/15 05:36:04;;;;;;;55.13;28.90;;;;;;;;;;6245455;22;20153;-91
2022/03/15 05:41:53;;;;;;;55.08;29.02;;;;;;;;;;6272458;22;20021;-89
2022/03/15 05:44:19;;;;;;;47.75;29.33;;;;;;;;;;6268697;22;20031;-90
2022/03/15 05:46:48;;;;;;;55.20;30.55;;;;;;;;;;6242805;22;20065;-89
2022/03/15 05:49:14;;;;;;;52.42;30.15;;;;;;;;;;6240863;22;20059;-86
2022/03/15 05:51:40;;;;;;;58.75;30.60;;;;;;;;;;6269694;22;20012;-85
2022/03/15 05:54:08;;;;;;;55.10;30.23;;;;;;;;;;6267712;22;20023;-89
2022/03/15 05:56:34;;;;;;;51.30;29.20;;;;;;;;;;6271534;22;20023;-88
2022/03/15 05:59:00;;;;;;;55.17;29.95;;;;;;;;;;6243036;22;20030;-85
2022/03/15 06:04:51;;;;;;;49.97;28.15;;;;;;;;;;6272403;22;20101;-95
2022/03/15 06:07:20;;;;;;;50.65;27.90;;;;;;;;;;6271236;22;20019;-94
2022/03/15 06:09:46;;;;;;;58.50;29.33;;;;;;;;;;6268419;22;20022;-91
2022/03/15 06:12:12;;;;;;;48.22;27.15;;;;;;;;;;6270269;22;20015;-88
2022/03/15 06:14:38;;;;;;;59.92;28.05;;;;;;;;;;6271441;22;20565;-91
2022/03/15 06:17:05;;;;;;;48.05;26.48;;;;;;;;;;6269572;22;20026;-91
2022/03/15 06:19:31;;;;;;;44.85;26.33;;;;;;;;;;6274501;22;20015;-88
2022/03/15 06:22:06;;;;;;;66.60;26.85;;;;;;;;;;6268005;22;20023;-95
2022/03/15 06:30:28;;;;;;;55.00;26.98;;;;;;;;;;6280621;22;20050;-83
2022/03/15 06:32:54;;;;;;;61.00;28.40;;;;;;;;;;6267417;22;20027;-86
2022/03/15 06:35:46;;;;;;;53.17;26.48;;;5.40;99.90;;;;;;6262022;22;20027;-82
2022/03/15 06:38:13;;;;;;;51.22;27.80;;;;;;;;;;6293947;22;20026;-85
2022/03/15 06:40:40;;;;;;;45.88;26.20;;;;;;;;;;6294972;22;20027;-85
2022/03/15 06:46:24;;;;;;;54.67;27.50;;;;;;;;;;6286440;22;20012;-84
2022/03/15 06:52:46;;;;;;;61.78;30.80;;;;;;;;;;6282008;22;20019;-91
2022/03/15 06:55:13;;;;;;;60.10;31.00;;;;;;;;;;6260702;22;20016;-90
2022/03/15 06:57:53;;;;;;;54.92;30.60;;;;;;;;;;6285989;22;20016;-96
2022/03/15 07:03:42;;;;;;;59.38;32.42;;;;;;;;;;6289043;22;20084;-93
2022/03/15 07:06:08;;;;;;;66.38;32.90;;;;;;;;;;6263716;22;20102;-87
2022/03/15 07:08:35;;;;;;;65.38;34.72;;;;;;;;;;6287313;22;20071;-93
2022/03/15 07:11:01;;;;;;;63.78;34.08;;;;;;;;;;6261604;22;20019;-89
2022/03/15 07:19:36;;;;;;;78.90;37.30;;;;;;;;;;6261195;22;20024;-85
2022/03/15 07:25:20;;;;;;;65.82;34.78;;;;;;;;;;6167524;22;20036;-82
2022/03/15 07:27:47;;;;;;;77.10;36.63;;;;;;;;;;6279462;22;20137;-86
2022/03/15 07:37:08;;;;;;;79.00;39.78;;;;;;;;;;6279528;22;20030;-84
2022/03/15 07:39:35;;;;;;;71.60;37.08;;;;;;;;;;6242162;22;20012;-81
2022/03/15 07:42:06;;;;;;;72.95;37.50;;;;;;;;;;6291354;22;20062;-94
2022/03/15 07:44:41;;;;;;;73.90;38.45;;;;;;;;;;6288072;22;20030;-89
2022/03/15 07:47:25;;;;;;;74.25;37.03;;;;;;;;;;6254319;23;19995;-91
2022/03/15 07:53:31;;;;;;;65.97;37.60;;;;;;;;;;6271398;22;20165;-86
2022/03/15 07:55:59;;;;;;;79.90;39.67;;;;;;;;;;6249672;22;20024;-81
2022/03/15 07:58:25;;;;;;;75.75;39.97;;;;;;;;;;6258018;22;20012;-85
2022/03/15 08:00:56;;;;;;;75.75;40.20;;;;;;;;;;6282213;22;20023;-89
2022/03/15 08:03:22;;;;;;;81.85;40.40;;;;;;;;;;6253723;22;20023;-89
2022/03/15 08:05:48;;;;;;;82.07;41.03;;;;;;;;;;6203415;22;20128;-84
2022/03/15 08:08:15;;;;;;;79.20;42.67;;;;;;;;;;6201944;22;20071;-82
2022/03/15 08:10:41;;;;;;;75.30;41.08;;;;;;;;;;6254644;22;20015;-82
2022/03/15 08:13:08;;;;;;;72.97;39.67;;;;;;;;;;6251666;22;20024;-85
2022/03/15 08:15:34;;;;;;;77.68;40.67;;;;;;;;;;6246114;22;20073;-82
2022/03/15 08:18:02;;;;;;;84.30;40.92;;;;;;;;;;6271036;22;20509;-84
2022/03/15 08:20:32;;;;;;;83.45;41.00;;;;;;;;;;6250145;22;20019;-82
2022/03/15 08:22:59;;;;;;;78.75;41.15;;;;;;;;;;6244338;22;20103;-84
2022/03/15 08:25:26;;;;;;;78.90;40.22;;;;;;;;;;6251006;22;20466;-91
2022/03/15 08:27:52;;;;;;;73.32;39.75;;;;;;;;;;6282440;22;20042;-85
2022/03/15 08:30:20;;;;;;;76.95;39.95;;;;;;;;;;6262974;22;20038;-81
2022/03/15 08:32:47;;;;;;;74.15;39.28;;;;;;;;;;6256408;22;20015;-84
2022/03/15 08:35:13;;;;;;;79.57;42.22;;;;;;;;;;6285973;22;20076;-80
2022/03/15 08:37:40;;;;;;;81.55;40.75;;;;;;;;;;6284791;22;20082;-84
2022/03/15 08:40:06;;;;;;;80.57;40.78;;;;;;;;;;6224720;22;20115;-83
2022/03/15 08:42:32;;;;;;;68.85;39.17;;;;;;;;;;6282130;22;20047;-81
2022/03/15 08:44:58;;;;;;;80.03;40.58;;;;;;;;;;6279911;22;20024;-85
2022/03/15 08:47:28;;;;;;;73.25;39.42;;;;;;;;;;6249586;22;20047;-81
2022/03/15 08:49:56;;;;;;;73.28;38.78;;;;;;;;;;6247680;22;20480;-81
2022/03/15 08:52:33;;;;;;;59.53;35.78;;;;;;;;;;6280641;22;20024;-81
2022/03/15 08:54:59;;;;;;;65.50;34.90;;;;;;;;;;6290054;22;20027;-87
2022/03/15 08:57:29;;;;;;;60.03;35.33;;;;;;;;;;6293737;22;20003;-83
2022/03/15 08:59:56;;;;;;;61.83;35.47;;;;;;;;;;6292605;22;20024;-84
2022/03/15 09:02:22;;;;;;;70.55;36.10;;;;;;;;;;6290657;22;20016;-81
2022/03/15 09:04:48;;;;;;;68.75;38.30;;;;;;;;;;6291676;22;20019;-82
2022/03/15 09:07:36;;;;;;;69.93;37.40;;;;;;;;;;6297436;22;20023;-83
2022/03/15 09:10:32;;;;;;;68.45;36.65;;;;;;;;;;6195475;23;20028;-82
2022/03/15 09:12:58;;;;;;;64.18;37.75;;;;;;;;;;6187505;23;20079;-85
2022/03/15 09:15:31;;;;;;;74.03;36.65;;;;;;;;;;6184422;23;20037;-83
2022/03/15 09:24:45;;;;;;;68.72;39.35;;;;;;;;;;6012843;23;20043;-82
2022/03/15 09:27:12;;;;;;;70.35;37.88;;;;;;;;;;6025589;23;20320;-89
2022/03/15 09:29:39;;;;;;;58.00;35.20;;;;;;;;;;6137076;23;20020;-88
2022/03/15 09:32:07;;;;;;;60.63;34.95;;;;;;;;;;6138169;23;20017;-89
2022/03/15 09:38:25;;;;;;;60.90;36.58;;;7.80;99.90;;;;;;6256491;22;20054;-90
2022/03/15 09:51:19;;;;;;;60.17;34.03;;;;;;;;;;6127537;23;20036;-88
2022/03/15 09:53:46;;;;;;;54.20;32.67;;;;;;;;;;6160790;23;20442;-89
2022/03/15 09:59:33;;;;;;;53.88;33.10;;;;;;;;;;6163055;23;20020;-86
2022/03/15 10:01:59;;;;;;;48.00;31.05;;;;;;;;;;6227874;23;20027;-90
2022/03/15 10:04:29;;;;;;;51.03;33.38;;;;;;;;;;6213788;23;20027;-91
2022/03/15 10:06:56;;;;;;;51.40;30.77;;;;;;;;;;6213293;23;20020;-90
2022/03/15 10:09:22;;;;;;;57.00;32.20;;;;;;;;;;6215201;23;20013;-90
2022/03/15 10:29:14;;;;;;;39.30;28.20;;;;;;;;;;6214888;23;20028;-91
2022/03/15 10:31:43;;;;;;;38.60;27.75;;;;;;;;;;6187929;23;20079;-90
2022/03/15 10:34:10;;;;;;;49.90;28.73;;;;;;;;;;6189848;23;20453;-89
2022/03/15 10:36:37;;;;;;;46.33;29.23;;;;;;;;;;6189956;23;20456;-90
2022/03/15 10:42:09;;;;;;;44.22;31.63;;;;;;;;;;6243485;23;20016;-90
2022/03/15 10:44:39;;;;;;;48.53;32.33;;;;;;;;;;6197001;22;20022;-90
2022/03/15 10:47:17;;;;;;;45.30;31.67;;;;;;;;;;6248106;22;20024;-91
2022/03/15 10:49:49;;;;;;;37.03;26.58;;;;;;;;;;6250004;22;20030;-91
2022/03/15 10:52:28;;;;;;;42.50;27.98;;;;;;;;;;6277986;22;20020;-90
2022/03/15 10:54:54;;;;;;;34.80;25.13;;;;;;;;;;6250829;22;20079;-89
2022/03/15 10:57:20;;;;;;;40.35;25.27;;;;;;;;;;6224237;22;20024;-88
2022/03/15 10:59:46;;;;;;;38.53;26.48;;;;;;;;;;6250498;22;20022;-90
2022/03/15 11:05:01;;;;;;;39.03;27.70;;;;;;;;;;6240422;23;20078;-87
2022/03/15 11:07:37;;;;;;;38.33;27.10;;;;;;;;;;6244723;22;20440;-88
2022/03/15 11:10:13;;;;;;;45.28;27.05;;;;;;;;;;6249002;22;20144;-87
2022/03/15 11:12:58;;;;;;;38.67;27.30;;;;;;;;;;6274997;22;20371;-90
2022/03/15 11:15:30;;;;;;;38.42;26.85;;;;;;;;;;6280727;22;20110;-90
2022/03/15 11:18:02;;;;;;;35.92;25.00;;;;;;;;;;6252357;22;20043;-89
2022/03/15 11:20:31;;;;;;;37.63;25.45;;;;;;;;;;6274556;22;20016;-90
2022/03/15 11:23:00;;;;;;;36.22;25.50;;;;;;;;;;6247972;22;20026;-90
2022/03/15 11:28:24;;;;;;;34.33;23.05;;;;;;;;;;6231875;23;20024;-90
2022/03/15 11:30:51;;;;;;;35.33;24.00;;;;;;;;;;6248592;22;20348;-90
2022/03/15 11:36:29;;;;;;;32.92;24.17;;;;;;;;;;6244517;23;20028;-90
2022/03/15 11:38:56;;;;;;;41.65;24.67;;;;;;;;;;6221200;22;20351;-90
2022/03/15 11:41:22;;;;;;;33.38;24.27;;;;;;;;;;6247704;22;20062;-90
2022/03/15 11:44:00;;;;;;;34.63;24.73;;;;;;;;;;6249462;22;20026;-90
2022/03/15 11:46:54;;;;;;;43.30;27.15;;;;;;;;;;6249051;22;20103;-89
2022/03/15 11:49:31;;;;;;;41.45;29.90;;;;;;;;;;6271790;22;20051;-90
2022/03/15 11:51:57;;;;;;;43.55;28.30;;;;;;;;;;6241297;22;20030;-90
2022/03/15 11:57:49;;;;;;;45.63;30.42;;;;;;;;;;6266314;22;20408;-90
2022/03/15 12:00:29;;;;;;;51.72;32.65;;;;;;;;;;6241749;22;20015;-89
2022/03/15 12:08:52;;;;;;;48.33;31.27;;;;;;;;;;6233580;23;20127;-89
2022/03/15 12:21:13;;;;;;;46.15;32.33;;;;;;;;;;6151859;23;20021;-87
2022/03/15 12:23:42;;;;;;;41.60;31.95;;;;;;;;;;6150956;23;20349;-87
2022/03/15 12:26:19;;;;;;;47.13;30.90;;;;;;;;;;6125492;23;20021;-87
2022/03/15 12:28:59;;;;;;;50.72;29.55;;;;;;;;;;6150653;23;20040;-87
2022/03/15 12:31:51;;;;;;;51.33;31.55;;;;;;;;;;6128560;23;20064;-87
2022/03/15 12:34:18;;;;;;;41.72;26.90;;;;;;;;;;6115476;23;20034;-86
2022/03/15 12:39:53;;;;;;;36.83;21.08;;;;;;;;;;6125829;23;20032;-87
2022/03/15 12:42:22;;;;;;;24.80;18.10;;;;;;;;;;6115243;23;20018;-88
2022/03/15 12:47:27;;;;;;;27.58;17.85;;;;;;;;;;6243912;22;20051;-88
2022/03/15 12:50:15;;;;;;;26.85;19.90;;;;;;;;;;6185374;22;20022;-88
2022/03/15 12:52:43;;;;;;;29.20;19.90;;;;;;;;;;6210535;22;20035;-88
2022/03/15 12:58:25;;;;;;;31.00;18.27;;;;;;;;;;6219960;22;20039;-87
2022/03/15 13:00:52;;;;;;;32.15;19.40;;;;;;;;;;6194684;23;20928;-87
2022/03/15 13:06:50;;;;;;;26.30;18.42;;;;;;;;;;6220579;23;20170;-88
2022/03/15 13:12:43;;;;;;;28.67;19.55;;;;;;;;;;6228036;23;20381;-88
2022/03/15 13:25:34;;;;;;;26.42;18.25;;;;;;;;;;6234265;23;20024;-88
2022/03/15 13:28:07;;;;;;;27.02;17.05;;;;;;;;;;6209812;23;20034;-88
2022/03/15 13:31:09;;;;;;;24.42;14.57;;;;;;;;;;6222725;22;20016;-89
2022/03/15 13:37:04;;;;;;;23.73;13.98;;;;;;;;;;6247760;23;20096;-88
2022/03/15 13:39:31;;;;;;;20.42;13.35;;;;;;;;;;6182446;23;20073;-87
2022/03/15 13:45:45;;;;;;;24.60;13.15;;;;;;;;;;6233879;23;20023;-88
2022/03/15 13:48:12;;;;;;;20.50;12.50;;;;;;;;;;6182355;23;20039;-89
2022/03/15 13:54:17;;;;;;;19.40;12.43;;;;;;;;;;6239741;22;20098;-89
2022/03/15 13:56:48;;;;;;;22.02;11.57;;;;;;;;;;6192231;22;20392;-89
2022/03/15 13:59:22;;;;;;;17.20;10.20;;;;;;;;;;6231086;22;20031;-89
2022/03/15 14:01:52;;;;;;;20.00;9.83;;;;;;;;;;6182325;23;20456;-90
2022/03/15 14:07:32;;;;;;;12.73;8.90;;;;;;;;;;6235812;23;20027;-90
2022/03/15 14:10:04;;;;;;;15.93;9.35;;;;;;;;;;6211489;23;20013;-91
2022/03/15 14:12:33;;;;;;;15.55;9.20;;;;;;;;;;6205135;23;20395;-90
2022/03/15 14:15:11;;;;;;;18.60;10.25;;;;;;;;;;6164742;23;20028;-90
2022/03/15 14:17:49;;;;;;;14.07;8.63;;;;;;;;;;6186190;23;20020;-91
2022/03/15 14:20:23;;;;;;;18.35;10.63;;;;;;;;;;6208786;23;20636;-89
2022/03/15 14:25:34;;;;;;;19.02;10.95;;;;;;;;;;6246303;22;20035;-90
2022/03/15 14:28:02;;;;;;;17.80;11.10;;;;;;;;;;6248801;22;20023;-88
2022/03/15 14:30:28;;;;;;;21.08;11.80;;;;;;;;;;6217161;22;20015;-89
2022/03/15 14:33:08;;;;;;;18.42;11.35;;;;;;;;;;6217264;22;20019;-89
2022/03/15 14:38:38;;;;;;;17.73;10.85;;;;;;;;;;6269701;22;20050;-88
2022/03/15 14:41:06;;;;;;;19.17;10.40;;;;;;;;;;6218528;22;20034;-88
2022/03/15 14:43:35;;;;;;;17.33;11.05;;;;;;;;;;6195088;22;20396;-89
2022/03/15 14:46:05;;;;;;;35.78;23.65;;;;;;;;;;6196672;22;20102;-90
2022/03/15 14:48:33;;;;;;;37.38;26.80;;;;;;;;;;6244771;22;20091;-89
2022/03/15 14:51:05;;;;;;;40.60;25.92;;;;;;;;;;6223447;22;20023;-90
2022/03/15 14:56:43;;;;;;;30.40;19.20;;;;;;;;;;6178417;23;20387;-89
2022/03/15 15:02:52;;;;;;;29.30;21.80;;;;;;;;;;6205820;23;20019;-90
2022/03/15 15:05:44;;;;;;;36.83;23.45;;;;;;;;;;6160170;23;20035;-89
2022/03/15 15:11:01;;;;;;;34.17;22.83;;;;;;;;;;6248237;23;20031;-90
2022/03/15 15:13:28;;;;;;;39.90;26.67;;;;;;;;;;6277803;22;20043;-91
2022/03/15 15:15:54;;;;;;;36.30;24.33;;;;;;;;;;6256329;23;20447;-91
2022/03/15 15:18:22;;;;;;;39.72;24.48;;;;;;;;;;6273899;22;20013;-90
2022/03/15 15:21:07;;;;;;;37.88;25.30;;;;;;;;;;6243599;22;20356;-90
2022/03/15 15:23:37;;;;;;;33.58;25.42;;;;;;;;;;6242502;22;20027;-91
2022/03/15 15:26:35;;;;;;;42.33;25.13;;;;;;;;;;6244037;22;20122;-91
2022/03/15 15:29:01;;;;;;;31.85;22.45;;;;;;;;;;6268625;22;20019;-91
2022/03/15 15:31:27;;;;;;;30.20;21.55;;;;;;;;;;6191887;22;20093;-90
2022/03/15 15:33:54;;;;;;;30.80;20.63;;;;;;;;;;6270039;22;20332;-90
2022/03/15 15:36:20;;;;;;;32.28;19.83;;;;;;;;;;6192515;22;20023;-90
2022/03/15 15:42:05;;;;;;;25.13;18.77;;;;;;;;;;6239368;22;20028;-90
2022/03/15 15:44:31;;;;;;;33.88;21.92;;;;;;;;;;6218662;22;20449;-89
2022/03/15 15:47:04;;;;;;;34.10;23.83;;;;;;;;;;6244661;22;20424;-90
2022/03/15 15:49:30;;;;;;;30.25;22.98;;;;;;;;;;6203431;22;20024;-90
2022/03/15 15:52:15;;;;;;;29.83;21.60;;;;;;;;;;6248438;22;20027;-90
2022/03/15 15:54:44;;;;;;;29.27;19.67;;;;;;;;;;6192934;22;20015;-91
2022/03/15 15:57:17;;;;;;;27.65;19.75;;;;;;;;;;6267664;22;20026;-90
2022/03/15 16:00:21;;;;;;;32.20;19.95;;;;;;;;;;6191306;22;20027;-89
2022/03/15 16:02:47;;;;;;;29.55;21.58;;;;;;;;;;6243383;22;20019;-90
2022/03/15 16:05:20;;;;;;;29.75;19.27;;;;;;;;;;6190245;22;20094;-89
2022/03/15 16:11:08;;;;;;;29.92;19.98;;;;;;;;;;6255753;22;20107;-91
2022/03/15 16:16:13;;;;;;;31.98;21.33;;;;;;;;;;6235776;23;20093;-90
2022/03/15 16:18:42;;;;;;;29.48;21.27;;;;;;;;;;6235026;23;20436;-91
2022/03/15 16:21:11;;;;;;;29.83;22.45;;;;;;;;;;6238256;22;20356;-90
2022/03/15 16:23:38;;;;;;;35.45;21.83;;;;;;;;;;6218290;23;20024;-89
2022/03/15 16:26:07;;;;;;;32.15;21.90;;;;;;;;;;6233019;23;20404;-89
2022/03/15 16:28:34;;;;;;;28.75;21.17;;;;;;;;;;6210024;23;20020;-89
2022/03/15 16:31:05;;;;;;;32.50;19.90;;;;;;;;;;6234534;23;20024;-89
2022/03/15 16:33:31;;;;;;;28.40;20.42;;;;;;;;;;6210222;23;21067;-88
2022/03/15 16:36:05;;;;;;;29.55;21.08;;;;;;;;;;6209009;23;20435;-89
2022/03/15 16:41:31;;;;;;;33.10;21.20;;;;;;;;;;6241240;22;20422;-89
2022/03/15 16:43:57;;;;;;;27.83;19.85;;;;;;;;;;6241352;22;20554;-89
2022/03/15 16:46:24;;;;;;;32.92;21.20;;;;;;;;;;6241593;22;20041;-90
2022/03/15 16:48:51;;;;;;;28.83;20.25;;;;;;;;;;6266962;22;20015;-90
2022/03/15 16:51:20;;;;;;;27.15;18.58;;;;;;;;;;6190840;22;20024;-90
2022/03/15 16:57:03;;;;;;;25.30;18.85;;;;;;;;;;6238546;22;20058;-89
2022/03/15 16:59:29;;;;;;;32.53;19.98;;;;;;;;;;6238287;22;20020;-90
2022/03/15 17:01:55;;;;;;;28.35;19.65;;;;;;;;;;6215679;22;20031;-89
2022/03/15 17:07:06;;;;;;;30.25;21.88;;;;;;;;;;6272648;22;20032;-90
2022/03/15 17:09:33;;;;;;;29.77;22.58;;;;;;;;;;6192531;22;20019;-90
2022/03/15 17:15:08;;;;;;;30.88;21.55;;;;;;;;;;6269029;22;20810;-91
2022/03/15 17:17:34;;;;;;;28.42;22.05;;;;;;;;;;6238723;22;20082;-91
2022/03/15 17:20:01;;;;;;;43.85;23.15;;;;;;;;;;6233423;23;20013;-91
2022/03/15 17:22:28;;;;;;;32.50;21.95;;;;;;;;;;6238755;23;20050;-91
2022/03/15 17:25:02;;;;;;;29.88;21.45;;;;;;;;;;6235351;23;20027;-90
2022/03/15 17:27:31;;;;;;;33.63;21.30;;;;;;;;;;6207310;23;20051;-91
2022/03/15 17:30:12;;;;;;;34.08;21.90;;;;;;;;;;6162544;23;20062;-91
2022/03/15 17:32:39;;;;;;;33.72;20.13;;;;;;;;;;6184170;23;20016;-90
2022/03/15 17:35:14;;;;;;;28.15;18.85;;;;;;;;;;6222922;23;20027;-88
2022/03/15 17:37:56;;;;;;;32.55;18.80;;;;;;;;;;6208759;23;20095;-88
2022/03/15 17:40:22;;;;;;;40.38;20.42;;;;;;;;;;6213870;23;20314;-89
2022/03/15 17:46:11;;;;;;;38.47;22.48;;;;;;;;;;6242935;22;20406;-88